Time;durP1;ratioP1;P1;durP2;ratioP2;P2;SDS_P1;SDS_P2;PMS_P1;PMS_P2;Temp;Humidity;BMP_temperature;BMP_pressure;BME280_temperature;BME280_humidity;BME280_pressure;Samples;Min_cycle;Max_cycle;Signal;HPM_P1;HPM_P2
2023/09/11 00:00:34;;;;;;;0.70;0.70;;;;;;;16.32;nan;61282.00;4993118;28;20625;-67
2023/09/11 00:02:59;;;;;;;0.80;0.77;;;;;;;16.29;nan;61170.34;4992723;28;20315;-67
2023/09/11 00:05:25;;;;;;;0.80;0.80;;;;;;;16.33;nan;61288.84;4993149;28;20176;-66
2023/09/11 00:07:50;;;;;;;0.70;0.70;;;;;;;16.29;nan;61172.91;4992736;28;20373;-67
2023/09/11 00:10:15;;;;;;;0.80;0.80;;;;;;;15.97;nan;61134.25;4993107;28;20165;-67
2023/09/11 00:12:41;;;;;;;0.77;0.75;;;;;;;16.17;nan;61157.38;4992395;28;20180;-66
2023/09/11 00:15:07;;;;;;;0.80;0.80;;;;;;;16.08;nan;61391.47;4992757;28;20283;-67
2023/09/11 00:17:32;;;;;;;4.95;1.15;;;;;;;16.19;nan;61167.34;4993180;28;20184;-67
2023/09/11 00:19:58;;;;;;;0.90;0.90;;;;;;;16.20;nan;61103.50;4992883;28;20219;-67
2023/09/11 00:22:23;;;;;;;2.75;1.85;;;;;;;16.40;nan;61427.69;4992404;28;20180;-67
2023/09/11 00:24:49;;;;;;;0.85;0.85;;;;;;;16.12;nan;61259.41;4991409;28;20184;-67
2023/09/11 00:27:14;;;;;;;0.70;0.70;;;;;;;16.10;nan;61190.13;4992562;28;20165;-66
2023/09/11 00:29:39;;;;;;;0.70;0.70;;;;;;;16.18;nan;61163.66;4992789;28;20172;-66
2023/09/11 00:32:05;;;;;;;1.27;1.20;;;;;;;16.06;nan;61126.38;4992653;28;20215;-66
2023/09/11 00:34:30;;;;;;;0.80;0.80;;;;;;;15.77;nan;61071.06;4992243;28;20203;-66
2023/09/11 00:36:57;;;;;;;0.80;0.80;;;;;;;15.56;nan;61031.97;4992177;28;20267;-67
2023/09/11 00:39:23;;;;;;;0.80;0.80;;;;;;;15.59;nan;61244.47;4992562;28;20169;-68
2023/09/11 00:41:48;;;;;;;1.00;1.00;;;;;;;15.66;nan;61252.38;4992810;28;20190;-67
2023/09/11 00:44:13;;;;;;;1.13;0.90;;;;;;;15.56;nan;61013.94;4992604;28;20543;-66
2023/09/11 00:46:40;;;;;;;0.80;0.80;;;;;;;15.50;nan;60969.13;4992484;28;20203;-67
2023/09/11 00:49:06;;;;;;;1.02;1.02;;;;;;;15.32;nan;61085.28;4992333;28;20204;-67
2023/09/11 00:51:32;;;;;;;0.90;0.90;;;;;;;15.37;nan;60933.91;4992083;28;20366;-67
2023/09/11 00:53:58;;;;;;;0.85;0.85;;;;;;;15.34;nan;60967.13;4992390;28;20232;-67
2023/09/11 00:56:24;;;;;;;0.80;0.80;;;;;;;15.02;nan;60947.16;4992427;28;20239;-67
2023/09/11 00:58:50;;;;;;;0.80;0.80;;;;;;;14.97;nan;60856.63;4992338;28;20176;-66
2023/09/11 01:01:15;;;;;;;0.70;0.70;;;;;;;14.93;nan;60802.72;4992452;28;20670;-66
2023/09/11 01:03:41;;;;;;;1.17;1.17;;;;;;;15.25;nan;60796.91;4992143;28;20184;-66
2023/09/11 01:06:07;;;;;;;0.80;0.80;;;;;;;15.15;nan;60795.97;4992199;28;20157;-66
2023/09/11 01:08:33;;;;;;;1.00;1.00;;;;;;;15.29;nan;60785.97;4990608;28;20598;-66
2023/09/11 01:10:58;;;;;;;0.80;0.80;;;;;;;15.21;nan;60715.25;4991963;28;20181;-67
2023/09/11 01:13:24;;;;;;;0.65;0.65;;;;;;;15.04;nan;60619.56;4992232;28;20180;-67
2023/09/11 01:16:15;;;;;;;0.90;0.90;;;;;;;15.30;nan;60715.03;4996072;28;20579;-67
2023/09/11 01:18:49;;;;;;;0.90;0.90;;;;;;;15.55;nan;60768.81;4995993;28;20169;-67
2023/09/11 01:21:46;;;;;;;0.73;0.73;;;;;;;15.62;nan;60863.66;4996240;28;20168;-67
2023/09/11 01:24:32;;;;;;;0.80;0.80;;;;;;;15.35;nan;60952.25;4996110;28;20707;-67
2023/09/11 01:27:12;;;;;;;0.90;0.90;;;;;;;15.55;nan;60837.75;4995872;28;20594;-67
2023/09/11 01:29:40;;;;;;;0.80;0.80;;;;;;;15.27;nan;60779.13;4996070;28;20224;-67
2023/09/11 01:32:07;;;;;;;0.70;0.70;;;;;;;15.25;nan;60730.00;4995878;28;20196;-68
2023/09/11 01:34:33;;;;;;;0.80;0.80;;;;;;;15.37;nan;60836.09;4995556;28;20197;-67
2023/09/11 01:36:58;;;;;;;0.80;0.80;;;;;;;15.18;nan;60707.28;4995861;28;20180;-67
2023/09/11 01:39:24;;;;;;;0.80;0.80;;;;;;;15.53;nan;60853.53;4995534;28;20589;-67
2023/09/11 01:41:54;;;;;;;1.02;1.02;;;;;;;15.34;nan;60807.56;4995497;28;20549;-67
2023/09/11 01:44:46;;;;;;;0.80;0.80;;;;;;;15.35;nan;60733.50;4995836;28;20204;-67
2023/09/11 01:47:16;;;;;;;0.90;0.90;;;;;;;15.32;nan;60707.53;4995487;28;20208;-66
2023/09/11 01:49:43;;;;;;;0.98;0.98;;;;;;;15.01;nan;60549.91;4995710;28;20177;-67
2023/09/11 01:52:10;;;;;;;1.05;0.95;;;;;;;14.84;nan;60347.78;4995253;28;20625;-67
2023/09/11 01:54:36;;;;;;;0.90;0.90;;;;;;;14.94;nan;60135.22;4995384;28;20192;-66
2023/09/11 01:57:02;;;;;;;0.73;0.73;;;;;;;14.81;nan;60118.75;4995575;28;20235;-67
2023/09/11 01:59:27;;;;;;;0.80;0.80;;;;;;;15.15;nan;60260.91;4995349;28;20204;-67
2023/09/11 02:01:53;;;;;;;1.25;1.15;;;;;;;14.94;nan;60387.78;5015130;28;20211;-67
2023/09/11 02:04:18;;;;;;;0.77;0.77;;;;;;;14.98;nan;60114.50;5022275;28;20171;-67
2023/09/11 02:06:44;;;;;;;1.17;1.13;;;;;;;14.86;nan;59750.97;5022097;28;20183;-66
2023/09/11 02:09:09;;;;;;;0.98;0.98;;;;;;;14.55;nan;59466.03;5021922;28;20216;-67
2023/09/11 02:11:35;;;;;;;0.82;0.82;;;;;;;14.58;nan;59484.22;5022524;28;20191;-67
2023/09/11 02:14:00;;;;;;;0.90;0.90;;;;;;;14.73;nan;59083.84;5023678;28;20256;-65
2023/09/11 02:16:25;;;;;;;1.02;1.02;;;;;;;14.52;nan;58692.09;5023916;28;20195;-67
2023/09/11 02:18:51;;;;;;;1.10;1.10;;;;;;;14.27;nan;57471.22;5021481;28;20313;-67
2023/09/11 02:21:16;;;;;;;0.98;0.98;;;;;;;14.39;nan;56672.44;5023473;28;20223;-66
2023/09/11 02:23:42;;;;;;;1.80;1.70;;;;;;;14.12;nan;55734.44;5020676;28;20184;-66
2023/09/11 02:26:07;;;;;;;1.30;1.20;;;;;;;14.53;nan;56623.00;5020885;28;20208;-67
2023/09/11 02:28:33;;;;;;;0.95;0.95;;;;;;;14.34;nan;56778.00;5022377;28;20720;-66
2023/09/11 02:30:58;;;;;;;0.98;0.98;;;;;;;14.33;nan;56058.50;5021527;28;20640;-66
2023/09/11 02:33:24;;;;;;;0.88;0.88;;;;;;;14.25;nan;55185.19;5017875;28;20184;-66
2023/09/11 02:35:54;;;;;;;0.80;0.80;;;;;;;13.56;nan;56629.59;5022339;28;20197;-67
2023/09/11 02:38:19;;;;;;;0.80;0.80;;;;;;;14.22;nan;56626.81;5014305;28;20179;-66
2023/09/11 02:40:45;;;;;;;0.90;0.90;;;;;;;14.22;nan;56493.38;5014130;28;20681;-67
2023/09/11 02:43:10;;;;;;;1.05;0.98;;;;;;;14.36;nan;56231.00;5014207;28;20177;-66
2023/09/11 02:45:35;;;;;;;0.88;0.88;;;;;;;14.51;nan;57052.72;5014183;28;20169;-66
2023/09/11 02:48:01;;;;;;;0.90;0.90;;;;;;;14.33;nan;56291.47;5013988;28;20551;-65
2023/09/11 02:50:26;;;;;;;1.30;1.30;;;;;;;14.29;nan;55607.41;5013865;28;20176;-66
2023/09/11 02:52:52;;;;;;;0.80;0.80;;;;;;;14.15;nan;55532.38;5014109;28;20179;-66
2023/09/11 02:55:17;;;;;;;0.90;0.90;;;;;;;14.36;nan;55578.75;5013874;28;20200;-67
2023/09/11 02:57:42;;;;;;;0.90;0.90;;;;;;;14.30;nan;55203.66;5013940;28;20176;-66
2023/09/11 03:00:09;;;;;;;1.42;1.35;;;;;;;14.20;nan;55814.06;5013727;28;20186;-67
2023/09/11 03:02:34;;;;;;;1.02;1.02;;;;;;;14.33;nan;56099.53;5014058;28;20187;-66
2023/09/11 03:05:00;;;;;;;1.10;1.10;;;;;;;14.38;nan;56040.63;5018759;28;20585;-66
2023/09/11 03:07:25;;;;;;;1.20;1.17;;;;;;;14.31;nan;55463.25;5013437;28;20172;-66
2023/09/11 03:09:50;;;;;;;0.98;0.98;;;;;;;13.94;nan;54018.91;5013780;28;20227;-66
2023/09/11 03:12:16;;;;;;;1.00;1.00;;;;;;;14.15;nan;53504.38;5013430;28;20270;-67
2023/09/11 03:14:41;;;;;;;1.15;1.15;;;;;;;13.88;nan;51958.47;5013259;28;20200;-66
2023/09/11 03:17:07;;;;;;;1.10;1.10;;;;;;;14.25;nan;51747.63;5013542;28;20552;-66
2023/09/11 03:19:34;;;;;;;0.90;0.90;;;;;;;13.97;nan;52100.44;5013288;28;20199;-67
2023/09/11 03:21:59;;;;;;;0.90;0.90;;;;;;;13.94;nan;50468.56;5012933;28;20180;-66
2023/09/11 03:24:24;;;;;;;0.98;0.98;;;;;;;14.30;nan;52810.91;5015569;28;20742;-66
2023/09/11 03:26:50;;;;;;;0.95;0.95;;;;;;;14.13;nan;52664.41;5013290;28;20191;-66
2023/09/11 03:29:15;;;;;;;1.00;1.00;;;;;;;14.21;nan;51784.75;5013166;28;20554;-65
2023/09/11 03:31:41;;;;;;;1.10;1.10;;;;;;;13.87;nan;49996.09;5013262;28;20176;-67
2023/09/11 03:34:06;;;;;;;1.00;1.00;;;;;;;14.00;nan;50080.50;5013057;28;20192;-66
2023/09/11 03:36:32;;;;;;;1.25;1.15;;;;;;;14.05;nan;50105.69;5011313;28;20568;-66
2023/09/11 03:38:57;;;;;;;0.90;0.90;;;;;;;14.01;nan;50265.75;5013109;28;20176;-65
2023/09/11 03:41:22;;;;;;;0.90;0.90;;;;;;;14.03;nan;51373.31;5013000;28;20242;-66
2023/09/11 03:43:48;;;;;;;0.80;0.80;;;;;;;13.95;nan;49113.50;5013113;28;20172;-67
2023/09/11 03:46:14;;;;;;;0.75;0.75;;;;;;;13.85;nan;48336.75;5012500;28;20168;-67
2023/09/11 03:48:40;;;;;;;1.27;1.20;;;;;;;13.55;nan;43657.31;5012771;28;20164;-66
2023/09/11 03:51:06;;;;;;;1.00;1.00;;;;;;;13.40;nan;42677.53;5012795;28;20184;-67
2023/09/11 03:53:31;;;;;;;0.82;0.82;;;;;;;13.58;nan;36882.34;5012897;28;20168;-65
2023/09/11 03:55:56;;;;;;;0.85;0.85;;;;;;;13.56;nan;39159.56;5012700;28;20177;-66
2023/09/11 03:58:22;;;;;;;1.52;1.42;;;;;;;13.38;nan;36867.84;5019424;28;20592;-66
2023/09/11 04:00:47;;;;;;;1.00;1.00;;;;;;;13.64;nan;34930.13;5017337;28;20241;-66
2023/09/11 04:03:13;;;;;;;1.05;1.02;;;;;;;13.38;nan;34260.50;5018158;28;20254;-66
2023/09/11 04:05:39;;;;;;;0.90;0.90;;;;;;;13.72;nan;34609.66;5015897;28;20176;-66
2023/09/11 04:08:04;;;;;;;0.80;0.80;;;;;;;13.88;nan;36251.50;5015044;28;20234;-65
2023/09/11 04:10:30;;;;;;;0.95;0.95;;;;;;;13.89;nan;37710.50;5021401;28;20211;-66
2023/09/11 04:12:55;;;;;;;1.10;1.10;;;;;;;14.07;nan;39682.97;5019141;28;20187;-66
2023/09/11 04:15:21;;;;;;;3.90;2.45;;;;;;;13.94;nan;39471.75;5018778;28;20223;-67
2023/09/11 04:17:46;;;;;;;0.80;0.80;;;;;;;13.70;nan;36564.81;5016108;28;20575;-65
2023/09/11 04:20:12;;;;;;;1.30;1.30;;;;;;;13.82;nan;35268.69;5012353;28;20188;-67
2023/09/11 04:22:37;;;;;;;0.95;0.95;;;;;;;13.89;nan;38587.81;5012341;28;20259;-65
2023/09/11 04:25:03;;;;;;;0.90;0.90;;;;;;;14.12;nan;41451.44;5012307;28;20188;-65
2023/09/11 04:27:29;;;;;;;2.30;1.85;;;;;;;14.03;nan;38988.34;5012321;28;20176;-68
2023/09/11 04:29:56;;;;;;;1.42;1.33;;;;;;;14.10;nan;39481.47;5006042;28;20218;-67
2023/09/11 04:32:21;;;;;;;1.42;1.25;;;;;;;14.10;nan;38804.84;5001492;28;20180;-69
2023/09/11 04:34:47;;;;;;;0.95;0.95;;;;;;;13.90;nan;38886.63;5002855;28;20315;-68
2023/09/11 04:37:13;;;;;;;0.80;0.80;;;;;;;14.21;nan;39435.94;5011453;28;20173;-68
2023/09/11 04:39:40;;;;;;;1.13;1.02;;;;;;;14.09;nan;39237.88;5011547;28;20200;-68
2023/09/11 04:42:05;;;;;;;0.90;0.90;;;;;;;14.01;nan;41228.13;5011510;28;20559;-67
2023/09/11 04:44:31;;;;;;;1.08;1.08;;;;;;;14.22;nan;40089.84;5009902;28;20658;-68
2023/09/11 04:46:56;;;;;;;0.80;0.80;;;;;;;14.07;nan;39782.50;5011200;28;20187;-66
2023/09/11 04:49:22;;;;;;;1.20;1.10;;;;;;;14.33;nan;40601.53;5011495;28;20651;-66
2023/09/11 04:51:48;;;;;;;1.20;1.20;;;;;;;14.24;nan;41386.16;4998655;28;20637;-67
2023/09/11 04:54:14;;;;;;;0.80;0.80;;;;;;;14.53;nan;43096.78;4992031;28;20566;-67
2023/09/11 04:56:39;;;;;;;1.33;1.30;;;;;;;14.86;nan;49115.06;4992271;28;20235;-67
2023/09/11 04:59:04;;;;;;;1.10;1.10;;;;;;;14.54;nan;50309.91;4997298;28;20270;-67
2023/09/11 05:01:30;;;;;;;1.10;1.10;;;;;;;15.04;nan;51529.44;5000494;28;20173;-67
2023/09/11 05:03:55;;;;;;;0.90;0.90;;;;;;;15.29;nan;53393.22;5000603;28;20234;-66
2023/09/11 05:06:21;;;;;;;1.10;1.10;;;;;;;15.17;nan;53504.44;5011742;28;20557;-66
2023/09/11 05:08:46;;;;;;;0.77;0.77;;;;;;;15.69;nan;56399.56;4997814;28;20658;-66
2023/09/11 05:11:11;;;;;;;1.10;1.10;;;;;;;15.77;nan;56546.31;4991692;28;20962;-68
2023/09/11 05:13:37;;;;;;;1.33;1.33;;;;;;;15.94;nan;57284.13;4992055;28;20279;-66
2023/09/11 05:16:02;;;;;;;0.95;0.95;;;;;;;15.83;nan;58384.63;4991669;28;20219;-67
2023/09/11 05:18:28;;;;;;;1.65;1.55;;;;;;;16.23;nan;58809.09;4991706;28;20172;-67
2023/09/11 05:20:53;;;;;;;1.00;1.00;;;;;;;16.67;nan;59823.22;4992107;28;20189;-68
2023/09/11 05:23:19;;;;;;;0.80;0.80;;;;;;;16.38;nan;59806.63;4992008;28;20207;-68
2023/09/11 05:25:45;;;;;;;0.73;0.73;;;;;;;16.34;nan;60042.41;4991850;28;20180;-67
2023/09/11 05:28:10;;;;;;;0.70;0.70;;;;;;;16.54;nan;60055.75;4991774;28;20192;-67
2023/09/11 05:30:36;;;;;;;0.70;0.70;;;;;;;16.83;nan;60340.72;4991783;28;20256;-69
2023/09/11 05:33:01;;;;;;;0.88;0.88;;;;;;;16.83;nan;60322.66;4991740;28;20184;-66
2023/09/11 05:35:26;;;;;;;0.98;0.98;;;;;;;16.90;nan;60487.81;4991944;28;20200;-66
2023/09/11 05:37:52;;;;;;;0.80;0.80;;;;;;;17.09;nan;60593.63;5008454;28;20644;-68
2023/09/11 05:40:17;;;;;;;1.77;1.67;;;;;;;17.17;nan;60721.28;5010863;28;20172;-67
2023/09/11 05:42:43;;;;;;;0.82;0.82;;;;;;;17.76;nan;61197.09;5010758;28;20537;-67
2023/09/11 05:45:09;;;;;;;0.80;0.80;;;;;;;17.74;nan;61270.34;5010471;28;20581;-67
2023/09/11 05:47:34;;;;;;;1.05;1.05;;;;;;;17.73;nan;61085.22;5010745;28;20172;-67
2023/09/11 05:50:01;;;;;;;0.85;0.85;;;;;;;17.77;nan;61144.53;5011618;28;20180;-67
2023/09/11 05:52:27;;;;;;;0.82;0.82;;;;;;;17.91;nan;61170.66;5011361;28;20176;-66
2023/09/11 05:54:54;;;;;;;2.80;1.48;;;;;;;18.04;nan;61195.63;5011218;28;20298;-69
2023/09/11 05:57:20;;;;;;;0.90;0.90;;;;;;;18.06;nan;61176.66;5011320;28;20636;-68
2023/09/11 05:59:48;;;;;;;1.08;1.08;;;;;;;18.28;nan;61271.25;5011471;28;20196;-69
2023/09/11 06:02:14;;;;;;;0.80;0.80;;;;;;;18.14;nan;61320.09;5014561;28;20169;-68
2023/09/11 06:04:39;;;;;;;1.52;1.42;;;;;;;18.57;nan;61331.91;5015213;28;20182;-67
2023/09/11 06:07:05;;;;;;;0.85;0.85;;;;;;;18.68;nan;61349.50;5017102;28;20190;-70
2023/09/11 06:09:30;;;;;;;0.70;0.70;;;;;;;18.66;nan;61263.88;5013301;28;20327;-68
2023/09/11 06:11:56;;;;;;;0.95;0.90;;;;;;;18.97;nan;61405.56;5012814;28;20187;-69
2023/09/11 06:14:22;;;;;;;1.08;1.08;;;;;;;18.72;nan;61335.91;5012712;28;20200;-68
2023/09/11 06:16:48;;;;;;;0.88;0.88;;;;;;;18.80;nan;61409.09;5012731;28;20172;-68
2023/09/11 06:19:13;;;;;;;0.73;0.73;;;;;;;19.08;nan;61427.22;5016700;28;20563;-67
2023/09/11 06:21:39;;;;;;;1.00;0.98;;;;;;;19.15;nan;61466.78;5015461;28;20217;-68
2023/09/11 06:24:05;;;;;;;0.80;0.80;;;;;;;19.27;nan;61482.38;5014664;28;20176;-69
2023/09/11 06:26:30;;;;;;;0.50;0.50;;;;;;;19.22;nan;61582.94;5014788;28;20200;-69
2023/09/11 06:28:55;;;;;;;2.47;0.80;;;;;;;19.19;nan;61587.31;5014592;28;20714;-68
2023/09/11 06:31:22;;;;;;;1.70;1.23;;;;;;;19.72;nan;61538.50;5014704;28;20214;-67
2023/09/11 06:33:48;;;;;;;0.60;0.60;;;;;;;19.67;nan;61540.06;5014496;28;20242;-68
2023/09/11 06:36:13;;;;;;;0.80;0.80;;;;;;;19.90;nan;61570.72;5014456;28;20165;-69
2023/09/11 06:38:39;;;;;;;0.90;0.90;;;;;;;20.03;nan;61585.44;5014224;28;20264;-68
2023/09/11 06:41:04;;;;;;;0.82;0.82;;;;;;;19.81;nan;61649.81;5013157;28;20183;-69
2023/09/11 06:43:31;;;;;;;0.60;0.60;;;;;;;19.79;nan;61571.81;5014457;28;20183;-68
2023/09/11 06:45:56;;;;;;;1.17;1.10;;;;;;;18.99;nan;61611.81;5014089;28;20182;-68
2023/09/11 06:48:22;;;;;;;0.80;0.80;;;;;;;20.13;nan;61742.03;5014328;28;20176;-69
2023/09/11 06:50:47;;;;;;;0.57;0.57;;;;;;;20.42;nan;61642.06;5014509;28;20172;-68
2023/09/11 06:53:13;;;;;;;0.63;0.63;;;;;;;20.29;nan;61633.63;5014221;28;20546;-67
2023/09/11 06:55:46;;;;;;;0.82;0.82;;;;;;;20.59;nan;61650.94;5014135;28;20261;-69
2023/09/11 06:58:12;;;;;;;1.27;1.10;;;;;;;20.37;nan;61737.59;5014161;28;20229;-68
2023/09/11 07:00:37;;;;;;;0.85;0.85;;;;;;;17.43;nan;63136.63;5014107;28;20190;-69
2023/09/11 07:03:03;;;;;;;0.80;0.80;;;;;;;20.87;nan;61923.66;5013812;28;20172;-69
2023/09/11 07:05:28;;;;;;;1.02;1.02;;;;;;;20.80;nan;61679.94;5013681;28;20168;-68
2023/09/11 07:07:54;;;;;;;1.15;1.10;;;;;;;20.94;nan;61714.00;5013885;28;20224;-68
2023/09/11 07:10:19;;;;;;;0.75;0.75;;;;;;;17.69;nan;63217.94;5013693;28;20195;-68
2023/09/11 07:12:45;;;;;;;0.57;0.57;;;;;;;20.86;nan;61951.06;5012527;28;20171;-68
2023/09/11 07:15:11;;;;;;;0.70;0.70;;;;;;;21.17;nan;61871.50;5013696;28;20188;-69
2023/09/11 07:17:36;;;;;;;0.73;0.73;;;;;;;21.28;nan;61814.38;5013509;28;20176;-68
2023/09/11 07:20:04;;;;;;;1.00;1.00;;;;;;;21.37;nan;61731.00;5014247;28;20685;-68
2023/09/11 07:22:30;;;;;;;0.70;0.70;;;;;;;21.33;nan;61879.28;5013960;28;20172;-68
2023/09/11 07:24:55;;;;;;;0.93;0.93;;;;;;;21.43;nan;61755.47;5013636;28;20255;-68
2023/09/11 07:27:21;;;;;;;0.52;0.52;;;;;;;21.57;nan;61948.72;5012506;28;20175;-67
2023/09/11 07:29:48;;;;;;;1.02;1.02;;;;;;;21.73;nan;61809.75;5013646;28;20179;-68
2023/09/11 07:32:14;;;;;;;0.60;0.60;;;;;;;21.76;nan;61824.13;5013640;28;20187;-67
2023/09/11 07:34:40;;;;;;;1.50;0.80;;;;;;;21.75;nan;61942.63;5013609;28;20196;-67
2023/09/11 07:37:05;;;;;;;0.80;0.80;;;;;;;21.90;nan;61803.03;5014153;28;20168;-67
2023/09/11 07:39:31;;;;;;;0.90;0.90;;;;;;;22.44;nan;61942.47;5013777;28;20164;-68
2023/09/11 07:41:56;;;;;;;0.90;0.90;;;;;;;22.48;nan;62024.56;5013303;28;20172;-67
2023/09/11 07:44:21;;;;;;;4.68;1.13;;;;;;;21.88;nan;61852.78;5013589;28;20344;-67
2023/09/11 07:46:48;;;;;;;1.10;1.10;;;;;;;22.13;nan;62031.59;5013115;28;20636;-68
2023/09/11 07:49:14;;;;;;;0.60;0.60;;;;;;;22.57;nan;62023.81;5013211;28;20183;-68
2023/09/11 07:51:39;;;;;;;0.88;0.88;;;;;;;22.73;nan;61950.88;5013166;28;20172;-68
2023/09/11 07:54:04;;;;;;;0.80;0.80;;;;;;;22.79;nan;61973.34;5012942;28;20304;-68
2023/09/11 07:56:30;;;;;;;0.95;0.95;;;;;;;22.65;nan;61898.06;5012980;28;20706;-68
2023/09/11 07:58:55;;;;;;;0.55;0.55;;;;;;;22.81;nan;61947.53;5013138;28;20172;-68
2023/09/11 08:01:21;;;;;;;1.08;1.05;;;;;;;22.80;nan;62057.84;5012670;28;20528;-68
2023/09/11 08:03:47;;;;;;;0.63;0.63;;;;;;;23.12;nan;62010.88;5012869;28;20287;-67
2023/09/11 08:06:13;;;;;;;0.70;0.70;;;;;;;22.79;nan;61892.56;5012663;28;20652;-67
2023/09/11 08:08:38;;;;;;;0.70;0.70;;;;;;;22.93;nan;62044.00;5012537;28;20310;-68
2023/09/11 08:11:18;;;;;;;0.60;0.60;;;;;;;22.96;nan;62109.97;5013116;28;20176;-67
2023/09/11 08:13:46;;;;;;;0.60;0.60;;;;;;;23.32;nan;61993.94;5012305;28;20646;-68
2023/09/11 08:16:12;;;;;;;0.75;0.75;;;;;;;23.43;nan;62149.34;5011424;28;20172;-68
2023/09/11 08:18:37;;;;;;;0.60;0.60;;;;;;;23.08;nan;62162.16;5012810;28;20183;-68
2023/09/11 08:21:04;;;;;;;1.40;1.30;;;;;;;23.39;nan;62110.88;5012640;28;20180;-67
2023/09/11 08:23:29;;;;;;;0.50;0.50;;;;;;;23.45;nan;62151.63;5012204;28;20283;-68
2023/09/11 08:25:56;;;;;;;1.52;1.02;;;;;;;23.54;nan;62154.63;5012862;28;20703;-67
2023/09/11 08:28:22;;;;;;;1.27;1.17;;;;;;;23.72;nan;62099.47;5012350;28;20659;-68
2023/09/11 08:30:47;;;;;;;0.73;0.73;;;;;;;23.94;nan;62350.53;5012914;28;20168;-67
2023/09/11 08:33:12;;;;;;;1.60;1.50;;;;;;;24.10;nan;62097.22;5012514;28;20176;-67
2023/09/11 08:35:38;;;;;;;13.25;1.25;;;;;;;24.24;nan;62266.72;5012659;28;20206;-67
2023/09/11 08:38:04;;;;;;;0.80;0.80;;;;;;;24.56;nan;62190.88;5012503;28;20222;-67
2023/09/11 08:40:30;;;;;;;0.68;0.68;;;;;;;24.67;nan;62192.38;5012243;28;20658;-67
2023/09/11 08:42:56;;;;;;;0.40;0.40;;;;;;;24.63;nan;62337.94;5012245;28;20210;-68
2023/09/11 08:45:25;;;;;;;0.50;0.50;;;;;;;24.84;nan;62348.28;5012774;28;20176;-67
2023/09/11 08:47:54;;;;;;;0.68;0.68;;;;;;;24.93;nan;62248.75;5012512;28;20172;-68
2023/09/11 08:50:21;;;;;;;0.50;0.50;;;;;;;25.06;nan;62270.88;5012328;28;20196;-68
2023/09/11 08:52:48;;;;;;;0.60;0.60;;;;;;;24.99;nan;62250.38;5011910;28;20717;-68
2023/09/11 08:55:19;;;;;;;0.70;0.70;;;;;;;24.86;nan;62216.66;5011947;28;20222;-68
2023/09/11 08:57:45;;;;;;;0.68;0.68;;;;;;;24.53;nan;62308.22;5012426;28;20171;-68
2023/09/11 09:00:13;;;;;;;0.60;0.60;;;;;;;24.46;nan;62174.28;5012251;28;20164;-67
2023/09/11 09:02:39;;;;;;;0.82;0.82;;;;;;;24.72;nan;62216.38;5010708;28;20184;-68
2023/09/11 09:05:06;;;;;;;0.73;0.73;;;;;;;24.89;nan;62332.53;5011798;28;20238;-67
2023/09/11 09:07:32;;;;;;;0.70;0.70;;;;;;;24.96;nan;62280.97;5011638;28;20168;-68
2023/09/11 09:09:58;;;;;;;0.60;0.60;;;;;;;25.02;nan;62274.72;5011646;28;20234;-68
2023/09/11 09:12:26;;;;;;;0.65;0.65;;;;;;;25.17;nan;62393.28;5011965;28;20678;-68
2023/09/11 09:14:51;;;;;;;0.63;0.60;;;;;;;25.22;nan;62306.84;5011417;28;20287;-68
2023/09/11 09:17:17;;;;;;;0.50;0.50;;;;;;;25.04;nan;62263.94;5011575;28;20275;-68
2023/09/11 09:19:42;;;;;;;0.57;0.57;;;;;;;24.86;nan;62237.56;5011583;28;20198;-67
2023/09/11 09:22:09;;;;;;;0.50;0.50;;;;;;;25.14;nan;62323.88;5011578;28;20168;-67
2023/09/11 09:24:36;;;;;;;0.68;0.68;;;;;;;25.01;nan;62375.00;5011101;28;20180;-67
2023/09/11 09:27:04;;;;;;;0.47;0.47;;;;;;;24.84;nan;62224.84;5011667;28;20545;-68
2023/09/11 09:29:37;;;;;;;0.40;0.40;;;;;;;24.89;nan;62248.84;5011506;28;20199;-69
2023/09/11 09:32:04;;;;;;;0.70;0.70;;;;;;;24.91;nan;62222.38;5011572;28;20615;-67
2023/09/11 09:34:32;;;;;;;0.50;0.50;;;;;;;25.16;nan;62399.97;5011320;28;20235;-66
2023/09/11 09:36:57;;;;;;;0.45;0.45;;;;;;;25.22;nan;62288.53;5014937;28;20176;-67
2023/09/11 09:39:29;;;;;;;0.60;0.60;;;;;;;25.51;nan;62339.97;5014762;28;20722;-66
2023/09/11 09:42:04;;;;;;;0.50;0.50;;;;;;;25.49;nan;62325.16;5015290;28;20194;-66
2023/09/11 09:44:34;;;;;;;1.15;1.05;;;;;;;25.78;nan;62433.66;5015108;28;20175;-68
2023/09/11 09:47:10;;;;;;;0.70;0.70;;;;;;;25.97;nan;62426.00;5015167;28;20164;-67
2023/09/11 09:49:52;;;;;;;0.30;0.30;;;;;;;25.99;nan;62548.75;5014393;28;20639;-67
2023/09/11 09:52:19;;;;;;;0.50;0.50;;;;;;;26.15;nan;62420.34;5014892;28;20226;-66
2023/09/11 09:54:54;;;;;;;9.38;1.48;;;;;;;25.84;nan;62495.50;5014759;28;20234;-67
2023/09/11 09:57:21;;;;;;;0.55;0.55;;;;;;;25.86;nan;62444.84;5014699;28;20619;-69
2023/09/11 09:59:58;;;;;;;1.00;0.65;;;;;;;25.49;nan;62410.94;5014598;28;20258;-67
2023/09/11 10:02:32;;;;;;;0.60;0.60;;;;;;;25.40;nan;62273.03;5014835;28;20174;-67
2023/09/11 10:05:03;;;;;;;0.50;0.50;;;;;;;25.41;nan;62414.91;5003837;28;20562;-66
2023/09/11 10:07:35;;;;;;;0.60;0.60;;;;;;;25.29;nan;62257.31;5006412;28;20643;-67
2023/09/11 10:10:21;;;;;;;0.55;0.55;;;;;;;25.20;nan;62242.34;5014520;28;20191;-69
2023/09/11 10:12:46;;;;;;;0.50;0.50;;;;;;;25.27;nan;62313.13;5014329;28;20348;-66
2023/09/11 10:15:12;;;;;;;0.70;0.70;;;;;;;25.39;nan;62297.47;5014142;28;20781;-66
2023/09/11 10:17:38;;;;;;;1.02;1.00;;;;;;;25.71;nan;62375.34;5014493;28;20179;-67
2023/09/11 10:20:05;;;;;;;0.30;0.30;;;;;;;25.82;nan;62380.63;5014365;28;20651;-68
2023/09/11 10:22:31;;;;;;;0.40;0.40;;;;;;;25.99;nan;62368.03;5014613;28;20234;-68
2023/09/11 10:24:56;;;;;;;0.70;0.70;;;;;;;25.91;nan;62411.28;5014378;28;20165;-67
2023/09/11 10:27:22;;;;;;;0.88;0.88;;;;;;;25.93;nan;62387.38;5014553;28;20196;-67
2023/09/11 10:29:54;;;;;;;0.70;0.70;;;;;;;25.76;nan;62337.09;5014382;28;20202;-67
2023/09/11 10:32:54;;;;;;;0.50;0.50;;;;;;;25.70;nan;62397.75;5014402;28;20160;-66
2023/09/11 10:35:20;;;;;;;4.80;0.77;;;;;;;25.50;nan;62574.94;5009956;28;20200;-67
2023/09/11 10:37:46;;;;;;;0.60;0.60;;;;;;;25.40;nan;62343.69;5005813;28;20180;-67
2023/09/11 10:40:13;;;;;;;0.80;0.80;;;;;;;25.53;nan;62368.97;5013996;28;20169;-66
2023/09/11 10:42:41;;;;;;;0.68;0.68;;;;;;;25.63;nan;62426.41;4994481;28;20169;-68
2023/09/11 10:45:27;;;;;;;0.68;0.68;;;;;;;25.58;nan;62436.38;4994311;28;20208;-68
2023/09/11 10:47:53;;;;;;;0.50;0.50;;;;;;;25.95;nan;62356.16;4994137;28;20177;-67
2023/09/11 10:50:18;;;;;;;0.82;0.82;;;;;;;26.07;nan;62455.19;4994803;28;20608;-68
2023/09/11 10:52:47;;;;;;;0.50;0.50;;;;;;;26.33;nan;62425.22;5002606;28;20225;-69
2023/09/11 10:55:14;;;;;;;0.60;0.60;;;;;;;26.44;nan;62413.63;5013832;28;20266;-68
2023/09/11 10:57:40;;;;;;;0.50;0.50;;;;;;;26.24;nan;62584.69;5013425;28;20195;-69
2023/09/11 11:00:08;;;;;;;0.55;0.55;;;;;;;26.32;nan;62468.63;5014188;28;20168;-69
2023/09/11 11:02:34;;;;;;;0.50;0.50;;;;;;;26.31;nan;62548.72;5013405;28;20704;-68
2023/09/11 11:05:00;;;;;;;0.85;0.85;;;;;;;26.61;nan;62500.63;5013756;28;20258;-68
2023/09/11 11:07:27;;;;;;;0.60;0.60;;;;;;;26.65;nan;62560.28;5014040;28;20233;-69
2023/09/11 11:09:53;;;;;;;0.75;0.75;;;;;;;26.73;nan;62482.88;5013788;28;20210;-68
2023/09/11 11:12:31;;;;;;;0.70;0.70;;;;;;;26.85;nan;62520.22;5013349;28;20638;-68
2023/09/11 11:15:19;;;;;;;0.57;0.57;;;;;;;26.57;nan;62527.53;5013167;28;20195;-69
2023/09/11 11:17:44;;;;;;;0.60;0.60;;;;;;;26.43;nan;62404.06;5013596;28;20179;-68
2023/09/11 11:20:11;;;;;;;0.52;0.52;;;;;;;26.40;nan;62477.22;5013576;28;20540;-68
2023/09/11 11:22:41;;;;;;;0.60;0.60;;;;;;;26.06;nan;62480.81;5013495;28;20248;-69
2023/09/11 11:25:10;;;;;;;0.68;0.68;;;;;;;25.81;nan;62468.50;5013402;28;20173;-68
2023/09/11 11:27:38;;;;;;;0.47;0.47;;;;;;;25.70;nan;62283.16;5011155;28;20203;-69
2023/09/11 11:30:04;;;;;;;0.40;0.40;;;;;;;25.86;nan;62359.00;5013384;28;20259;-68
2023/09/11 11:32:30;;;;;;;0.73;0.73;;;;;;;26.13;nan;62409.63;5013559;28;20172;-68
2023/09/11 11:35:00;;;;;;;0.82;0.82;;;;;;;26.17;nan;62408.97;5013019;28;20329;-69
2023/09/11 11:37:25;;;;;;;0.52;0.52;;;;;;;25.91;nan;62489.84;5013130;28;20176;-67
2023/09/11 11:39:52;;;;;;;0.77;0.77;;;;;;;26.17;nan;62529.50;5012542;28;20176;-67
2023/09/11 11:42:19;;;;;;;0.80;0.80;;;;;;;26.34;nan;62522.75;4992144;28;20238;-68
2023/09/11 11:44:45;;;;;;;0.88;0.85;;;;;;;26.64;nan;62488.91;4992061;28;20188;-67
2023/09/11 11:47:11;;;;;;;0.68;0.68;;;;;;;26.84;nan;62524.31;4992313;28;20238;-66
2023/09/11 11:49:37;;;;;;;0.40;0.40;;;;;;;26.99;nan;62523.13;4993058;28;20647;-67